sensor_id;sensor_type;location;lat;lon;timestamp;pressure;altitude;pressure_sealevel;temperature;humidity
65227;BME280;51805;49.012;12.104;2023-04-20T00:01:35;97800.50;;;21.92;50.65
65227;BME280;51805;49.012;12.104;2023-04-20T00:04:00;97812.91;;;21.98;50.72
65227;BME280;51805;49.012;12.104;2023-04-20T00:06:26;97805.63;;;21.99;50.64
65227;BME280;51805;49.012;12.104;2023-04-20T00:08:51;97781.56;;;21.92;50.38
65227;BME280;51805;49.012;12.104;2023-04-20T00:11:16;97782.13;;;21.89;50.71
65227;BME280;51805;49.012;12.104;2023-04-20T00:13:41;97785.31;;;21.96;50.65
65227;BME280;51805;49.012;12.104;2023-04-20T00:16:07;97796.41;;;21.95;50.65
65227;BME280;51805;49.012;12.104;2023-04-20T00:18:32;97770.81;;;21.82;50.62
65227;BME280;51805;49.012;12.104;2023-04-20T00:20:57;97784.56;;;21.91;50.78
65227;BME280;51805;49.012;12.104;2023-04-20T00:23:22;97764.84;;;21.85;50.71
65227;BME280;51805;49.012;12.104;2023-04-20T00:25:48;97753.50;;;21.78;50.63
65227;BME280;51805;49.012;12.104;2023-04-20T00:28:13;97765.91;;;21.89;50.71
65227;BME280;51805;49.012;12.104;2023-04-20T00:30:38;97767.28;;;21.87;50.68
65227;BME280;51805;49.012;12.104;2023-04-20T00:33:04;97762.09;;;21.90;50.64
65227;BME280;51805;49.012;12.104;2023-04-20T00:35:29;97762.91;;;21.91;50.69
65227;BME280;51805;49.012;12.104;2023-04-20T00:37:54;97749.72;;;21.79;50.57
65227;BME280;51805;49.012;12.104;2023-04-20T00:40:19;97759.44;;;21.85;50.73
65227;BME280;51805;49.012;12.104;2023-04-20T00:42:45;97746.22;;;21.79;50.88
65227;BME280;51805;49.012;12.104;2023-04-20T00:45:10;97725.94;;;21.71;50.79
65227;BME280;51805;49.012;12.104;2023-04-20T00:47:35;97756.44;;;21.87;50.97
65227;BME280;51805;49.012;12.104;2023-04-20T00:50:01;97752.38;;;21.84;50.78
65227;BME280;51805;49.012;12.104;2023-04-20T00:52:26;97746.97;;;21.84;50.90
65227;BME280;51805;49.012;12.104;2023-04-20T00:54:52;97748.34;;;21.82;50.69
65227;BME280;51805;49.012;12.104;2023-04-20T00:57:18;97744.28;;;21.84;50.75
65227;BME280;51805;49.012;12.104;2023-04-20T00:59:44;97745.38;;;21.83;50.92
65227;BME280;51805;49.012;12.104;2023-04-20T01:02:10;97731.34;;;21.76;50.97
65227;BME280;51805;49.012;12.104;2023-04-20T01:04:35;97739.97;;;21.83;50.96
65227;BME280;51805;49.012;12.104;2023-04-20T01:07:01;97722.13;;;21.72;50.79
65227;BME280;51805;49.012;12.104;2023-04-20T01:09:28;97727.56;;;21.77;50.90
65227;BME280;51805;49.012;12.104;2023-04-20T01:11:53;97741.63;;;21.79;50.79
65227;BME280;51805;49.012;12.104;2023-04-20T01:14:18;97712.44;;;21.66;50.79
65227;BME280;51805;49.012;12.104;2023-04-20T01:16:44;97733.25;;;21.76;50.82
65227;BME280;51805;49.012;12.104;2023-04-20T01:19:09;97724.84;;;21.72;50.73
65227;BME280;51805;49.012;12.104;2023-04-20T01:21:34;97724.84;;;21.77;50.77
65227;BME280;51805;49.012;12.104;2023-04-20T01:23:59;97702.19;;;21.63;50.94
65227;BME280;51805;49.012;12.104;2023-04-20T01:26:25;97716.75;;;21.77;50.91
65227;BME280;51805;49.012;12.104;2023-04-20T01:28:51;97714.03;;;21.77;51.22
65227;BME280;51805;49.012;12.104;2023-04-20T01:31:16;97720.53;;;21.71;50.98
65227;BME280;51805;49.012;12.104;2023-04-20T01:33:41;97694.91;;;21.59;50.96
65227;BME280;51805;49.012;12.104;2023-04-20T01:36:07;97722.69;;;21.74;50.75
65227;BME280;51805;49.012;12.104;2023-04-20T01:38:33;97705.16;;;21.62;51.08
65227;BME280;51805;49.012;12.104;2023-04-20T01:41:00;97688.44;;;21.55;50.93
65227;BME280;51805;49.012;12.104;2023-04-20T01:43:25;97714.56;;;21.74;50.84
65227;BME280;51805;49.012;12.104;2023-04-20T01:45:50;97707.78;;;21.72;50.79
65227;BME280;51805;49.012;12.104;2023-04-20T01:48:16;97712.41;;;21.76;50.78
65227;BME280;51805;49.012;12.104;2023-04-20T01:50:41;97713.50;;;21.70;50.95
65227;BME280;51805;49.012;12.104;2023-04-20T01:53:06;97702.94;;;21.69;50.93
65227;BME280;51805;49.012;12.104;2023-04-20T01:55:32;97705.91;;;21.72;50.92
65227;BME280;51805;49.012;12.104;2023-04-20T01:57:57;97695.16;;;21.62;50.78
65227;BME280;51805;49.012;12.104;2023-04-20T02:00:22;97697.59;;;21.64;50.86
65227;BME280;51805;49.012;12.104;2023-04-20T02:02:48;97674.41;;;21.53;50.82
65227;BME280;51805;49.012;12.104;2023-04-20T02:05:13;97692.19;;;21.64;50.90
65227;BME280;51805;49.012;12.104;2023-04-20T02:07:38;97685.97;;;21.58;50.85
65227;BME280;51805;49.012;12.104;2023-04-20T02:10:04;97647.22;;;21.29;50.91
65227;BME280;51805;49.012;12.104;2023-04-20T02:12:29;97695.94;;;21.68;50.99
65227;BME280;51805;49.012;12.104;2023-04-20T02:14:54;97696.78;;;21.63;50.94
65227;BME280;51805;49.012;12.104;2023-04-20T02:17:20;97696.78;;;21.63;50.85
65227;BME280;51805;49.012;12.104;2023-04-20T02:19:45;97690.81;;;21.61;50.91
65227;BME280;51805;49.012;12.104;2023-04-20T02:22:10;97693.81;;;21.60;50.97
65227;BME280;51805;49.012;12.104;2023-04-20T02:24:35;97690.31;;;21.59;50.77
65227;BME280;51805;49.012;12.104;2023-04-20T02:27:01;97696.50;;;21.65;50.84
65227;BME280;51805;49.012;12.104;2023-04-20T02:29:26;97691.38;;;21.63;50.92
65227;BME280;51805;49.012;12.104;2023-04-20T02:31:51;97679.53;;;21.54;50.83
65227;BME280;51805;49.012;12.104;2023-04-20T02:34:17;97665.75;;;21.51;50.86
65227;BME280;51805;49.012;12.104;2023-04-20T02:36:42;97678.44;;;21.55;50.84
65227;BME280;51805;49.012;12.104;2023-04-20T02:39:07;97681.13;;;21.55;50.86
65227;BME280;51805;49.012;12.104;2023-04-20T02:41:32;97676.00;;;21.54;50.94
65227;BME280;51805;49.012;12.104;2023-04-20T02:43:58;97684.84;;;21.64;51.00
65227;BME280;51805;49.012;12.104;2023-04-20T02:46:23;97693.53;;;21.61;50.92
65227;BME280;51805;49.012;12.104;2023-04-20T02:48:48;97674.63;;;21.56;50.87
65227;BME280;51805;49.012;12.104;2023-04-20T02:51:13;97676.53;;;21.61;50.95
65227;BME280;51805;49.012;12.104;2023-04-20T02:53:39;97679.50;;;21.59;50.94
65227;BME280;51805;49.012;12.104;2023-04-20T02:56:04;97684.91;;;21.59;50.92
65227;BME280;51805;49.012;12.104;2023-04-20T02:58:29;97676.25;;;21.57;51.21
65227;BME280;51805;49.012;12.104;2023-04-20T03:00:59;97679.50;;;21.59;51.01
65227;BME280;51805;49.012;12.104;2023-04-20T03:03:24;97674.97;;;21.50;50.75
65227;BME280;51805;49.012;12.104;2023-04-20T03:05:49;97684.91;;;21.59;50.82
65227;BME280;51805;49.012;12.104;2023-04-20T03:08:14;97660.91;;;21.42;51.07
65227;BME280;51805;49.012;12.104;2023-04-20T03:10:40;97683.28;;;21.58;50.88
65227;BME280;51805;49.012;12.104;2023-04-20T03:13:05;97676.25;;;21.57;50.88
65227;BME280;51805;49.012;12.104;2023-04-20T03:15:30;97681.66;;;21.57;51.10
65227;BME280;51805;49.012;12.104;2023-04-20T03:17:56;97659.56;;;21.45;50.94
65227;BME280;51805;49.012;12.104;2023-04-20T03:20:21;97677.88;;;21.58;51.06
65227;BME280;51805;49.012;12.104;2023-04-20T03:22:46;97660.63;;;21.44;51.06
65227;BME280;51805;49.012;12.104;2023-04-20T03:25:12;97670.31;;;21.55;50.94
65227;BME280;51805;49.012;12.104;2023-04-20T03:27:37;97656.34;;;21.43;51.06
65227;BME280;51805;49.012;12.104;2023-04-20T03:30:02;97674.91;;;21.55;50.99
65227;BME280;51805;49.012;12.104;2023-04-20T03:32:28;97680.03;;;21.56;51.04
65227;BME280;51805;49.012;12.104;2023-04-20T03:34:53;97680.31;;;21.55;50.93
65227;BME280;51805;49.012;12.104;2023-04-20T03:39:46;97674.13;;;21.49;50.88
65227;BME280;51805;49.012;12.104;2023-04-20T03:42:11;97661.44;;;21.50;50.76
65227;BME280;51805;49.012;12.104;2023-04-20T03:44:36;97643.94;;;21.37;50.86
65227;BME280;51805;49.012;12.104;2023-04-20T03:47:02;97656.03;;;21.50;51.01
65227;BME280;51805;49.012;12.104;2023-04-20T03:49:28;97673.31;;;21.54;50.94
65227;BME280;51805;49.012;12.104;2023-04-20T03:51:53;97671.44;;;21.49;51.03
65227;BME280;51805;49.012;12.104;2023-04-20T03:54:19;97670.13;;;21.47;51.00
65227;BME280;51805;49.012;12.104;2023-04-20T03:56:44;97650.94;;;21.38;50.88
65227;BME280;51805;49.012;12.104;2023-04-20T03:59:09;97649.91;;;21.34;51.00
65227;BME280;51805;49.012;12.104;2023-04-20T04:01:35;97670.63;;;21.48;51.00
65227;BME280;51805;49.012;12.104;2023-04-20T04:04:00;97650.66;;;21.39;50.97
65227;BME280;51805;49.012;12.104;2023-04-20T04:06:26;97667.69;;;21.45;51.04
65227;BME280;51805;49.012;12.104;2023-04-20T04:08:51;97675.75;;;21.50;51.06
65227;BME280;51805;49.012;12.104;2023-04-20T04:11:16;97653.41;;;21.34;51.02
65227;BME280;51805;49.012;12.104;2023-04-20T04:13:41;97673.84;;;21.51;50.97
65227;BME280;51805;49.012;12.104;2023-04-20T04:16:07;97625.13;;;21.17;51.04
65227;BME280;51805;49.012;12.104;2023-04-20T04:18:32;97658.78;;;21.39;50.94
65227;BME280;51805;49.012;12.104;2023-04-20T04:20:58;97673.09;;;21.45;51.26
65227;BME280;51805;49.012;12.104;2023-04-20T04:23:23;97673.09;;;21.45;51.07
65227;BME280;51805;49.012;12.104;2023-04-20T04:25:48;97555.06;;;20.72;50.85
65227;BME280;51805;49.012;12.104;2023-04-20T04:28:14;97639.66;;;21.26;50.89
65227;BME280;51805;49.012;12.104;2023-04-20T04:30:39;97665.25;;;21.43;51.10
65227;BME280;51805;49.012;12.104;2023-04-20T04:33:04;97676.31;;;21.47;51.61
65227;BME280;51805;49.012;12.104;2023-04-20T04:35:30;97652.88;;;21.37;51.51
65227;BME280;51805;49.012;12.104;2023-04-20T04:37:56;97627.75;;;21.27;51.71
65227;BME280;51805;49.012;12.104;2023-04-20T04:40:21;97642.84;;;21.33;51.57
65227;BME280;51805;49.012;12.104;2023-04-20T04:42:46;97646.09;;;21.35;52.06
65227;BME280;51805;49.012;12.104;2023-04-20T04:45:12;97572.28;;;20.86;52.20
65227;BME280;51805;49.012;12.104;2023-04-20T04:47:37;97564.75;;;20.78;52.14
65227;BME280;51805;49.012;12.104;2023-04-20T04:50:03;97668.81;;;21.39;52.21
65227;BME280;51805;49.012;12.104;2023-04-20T04:52:29;97664.44;;;21.43;52.37
65227;BME280;51805;49.012;12.104;2023-04-20T04:54:54;97670.91;;;21.47;52.36
65227;BME280;51805;49.012;12.104;2023-04-20T04:57:19;97662.03;;;21.41;52.35
65227;BME280;51805;49.012;12.104;2023-04-20T04:59:45;97646.91;;;21.35;52.30
65227;BME280;51805;49.012;12.104;2023-04-20T05:02:10;97661.47;;;21.44;52.50
65227;BME280;51805;49.012;12.104;2023-04-20T05:04:35;97648.78;;;21.40;52.35
65227;BME280;51805;49.012;12.104;2023-04-20T05:07:00;97674.13;;;21.49;52.46
65227;BME280;51805;49.012;12.104;2023-04-20T05:09:26;97639.59;;;21.36;52.33
65227;BME280;51805;49.012;12.104;2023-04-20T05:11:51;97677.31;;;21.56;52.44
65227;BME280;51805;49.012;12.104;2023-04-20T05:14:16;97631.00;;;21.29;52.63
65227;BME280;51805;49.012;12.104;2023-04-20T05:16:41;97665.47;;;21.52;52.52
65227;BME280;51805;49.012;12.104;2023-04-20T05:19:07;97657.66;;;21.45;52.50
65227;BME280;51805;49.012;12.104;2023-04-20T05:21:32;97675.97;;;21.59;52.33
65227;BME280;51805;49.012;12.104;2023-04-20T05:23:57;97668.69;;;21.59;52.15
65227;BME280;51805;49.012;12.104;2023-04-20T05:26:23;97647.09;;;21.49;52.32
65227;BME280;51805;49.012;12.104;2023-04-20T05:28:48;97670.56;;;21.64;52.46
65227;BME280;51805;49.012;12.104;2023-04-20T05:31:13;97633.41;;;21.35;52.61
65227;BME280;51805;49.012;12.104;2023-04-20T05:33:39;97650.34;;;21.51;52.49
65227;BME280;51805;49.012;12.104;2023-04-20T05:36:07;97677.25;;;21.71;52.23
65227;BME280;51805;49.012;12.104;2023-04-20T05:38:32;97666.19;;;21.68;52.19
65227;BME280;51805;49.012;12.104;2023-04-20T05:40:58;97667.56;;;21.65;52.32
65227;BME280;51805;49.012;12.104;2023-04-20T05:43:23;97680.75;;;21.72;52.25
65227;BME280;51805;49.012;12.104;2023-04-20T05:45:48;97663.22;;;21.64;52.30
65227;BME280;51805;49.012;12.104;2023-04-20T05:48:14;97681.84;;;21.81;52.38
65227;BME280;51805;49.012;12.104;2023-04-20T05:50:39;97664.53;;;21.77;52.17
65227;BME280;51805;49.012;12.104;2023-04-20T05:53:04;97685.00;;;21.88;52.09
65227;BME280;51805;49.012;12.104;2023-04-20T05:55:29;97675.84;;;21.84;52.07
65227;BME280;51805;49.012;12.104;2023-04-20T05:57:55;97686.88;;;21.92;51.56
65227;BME280;51805;49.012;12.104;2023-04-20T06:00:20;97697.34;;;22.04;51.47
65227;BME280;51805;49.012;12.104;2023-04-20T06:02:45;97670.34;;;21.94;51.22
65227;BME280;51805;49.012;12.104;2023-04-20T06:05:11;97695.44;;;22.04;51.41
65227;BME280;51805;49.012;12.104;2023-04-20T06:07:38;97669.47;;;22.03;51.42
65227;BME280;51805;49.012;12.104;2023-04-20T06:10:03;97685.34;;;22.15;51.49
65227;BME280;51805;49.012;12.104;2023-04-20T06:12:29;97670.03;;;22.00;51.33
65227;BME280;51805;49.012;12.104;2023-04-20T06:14:56;97618.25;;;21.78;51.30
65227;BME280;51805;49.012;12.104;2023-04-20T06:17:21;97596.44;;;21.65;51.39
65227;BME280;51805;49.012;12.104;2023-04-20T06:19:46;97669.91;;;22.15;51.43
65227;BME280;51805;49.012;12.104;2023-04-20T06:22:12;97675.25;;;22.25;51.44
65227;BME280;51805;49.012;12.104;2023-04-20T06:24:37;97676.59;;;22.23;51.44
65227;BME280;51805;49.012;12.104;2023-04-20T06:27:03;97682.22;;;22.31;51.25
65227;BME280;51805;49.012;12.104;2023-04-20T06:29:28;97664.47;;;22.20;51.33
65227;BME280;51805;49.012;12.104;2023-04-20T06:31:54;97671.97;;;22.28;51.41
65227;BME280;51805;49.012;12.104;2023-04-20T06:34:19;97670.03;;;22.34;51.31
65227;BME280;51805;49.012;12.104;2023-04-20T06:36:44;97677.28;;;22.38;51.29
65227;BME280;51805;49.012;12.104;2023-04-20T06:39:10;97676.22;;;22.39;51.48
65227;BME280;51805;49.012;12.104;2023-04-20T06:41:36;97674.25;;;22.45;51.32
65227;BME280;51805;49.012;12.104;2023-04-20T06:44:02;97653.53;;;22.30;51.59
65227;BME280;51805;49.012;12.104;2023-04-20T06:46:27;97654.34;;;22.31;51.42
65227;BME280;51805;49.012;12.104;2023-04-20T06:48:52;97675.56;;;22.47;51.36
65227;BME280;51805;49.012;12.104;2023-04-20T06:51:18;97679.38;;;22.46;51.51
65227;BME280;51805;49.012;12.104;2023-04-20T06:53:43;97607.78;;;22.05;51.48
65227;BME280;51805;49.012;12.104;2023-04-20T06:56:08;97628.16;;;22.21;51.35
65227;BME280;51805;49.012;12.104;2023-04-20T06:58:33;97662.31;;;22.46;51.48
65227;BME280;51805;49.012;12.104;2023-04-20T07:00:59;97627.31;;;22.26;51.34
65227;BME280;51805;49.012;12.104;2023-04-20T07:03:24;97653.44;;;22.40;51.36
65227;BME280;51805;49.012;12.104;2023-04-20T07:05:49;97638.97;;;22.26;51.64
65227;BME280;51805;49.012;12.104;2023-04-20T07:08:14;97677.69;;;22.55;51.53
65227;BME280;51805;49.012;12.104;2023-04-20T07:10:40;97608.19;;;22.17;51.75
65227;BME280;51805;49.012;12.104;2023-04-20T07:13:05;97673.06;;;22.61;51.59
65227;BME280;51805;49.012;12.104;2023-04-20T07:15:30;97659.84;;;22.54;51.54
65227;BME280;51805;49.012;12.104;2023-04-20T07:17:55;97660.28;;;22.61;51.59
65227;BME280;51805;49.012;12.104;2023-04-20T07:20:21;97647.09;;;22.55;51.50
65227;BME280;51805;49.012;12.104;2023-04-20T07:22:46;97664.34;;;22.64;51.92
65227;BME280;51805;49.012;12.104;2023-04-20T07:25:11;97654.31;;;22.64;51.76
65227;BME280;51805;49.012;12.104;2023-04-20T07:27:38;97574.16;;;22.11;51.86
65227;BME280;51805;49.012;12.104;2023-04-20T07:30:05;97654.25;;;22.69;51.76
65227;BME280;51805;49.012;12.104;2023-04-20T07:32:32;97653.72;;;22.67;51.84
65227;BME280;51805;49.012;12.104;2023-04-20T07:34:58;97644.03;;;22.61;51.68
65227;BME280;51805;49.012;12.104;2023-04-20T07:37:23;97607.13;;;22.42;51.98
65227;BME280;51805;49.012;12.104;2023-04-20T07:39:50;97613.06;;;22.44;51.97
65227;BME280;51805;49.012;12.104;2023-04-20T07:42:16;97626.25;;;22.55;51.86
65227;BME280;51805;49.012;12.104;2023-04-20T07:44:41;97594.47;;;22.37;52.13
65227;BME280;51805;49.012;12.104;2023-04-20T07:47:06;97653.41;;;22.74;51.84
65227;BME280;51805;49.012;12.104;2023-04-20T07:49:35;97591.22;;;22.35;51.80
65227;BME280;51805;49.012;12.104;2023-04-20T07:52:00;97649.88;;;22.73;51.93
65227;BME280;51805;49.012;12.104;2023-04-20T07:54:26;97570.53;;;22.21;51.84
65227;BME280;51805;49.012;12.104;2023-04-20T07:56:51;97630.25;;;22.58;52.14
65227;BME280;51805;49.012;12.104;2023-04-20T07:59:16;97586.38;;;22.32;51.94
65227;BME280;51805;49.012;12.104;2023-04-20T08:01:41;97643.72;;;22.68;51.82
65227;BME280;51805;49.012;12.104;2023-04-20T08:04:07;97656.34;;;22.77;52.03
65227;BME280;51805;49.012;12.104;2023-04-20T08:06:32;97582.34;;;22.30;52.02
65227;BME280;51805;49.012;12.104;2023-04-20T08:08:57;97644.44;;;22.73;51.87
65227;BME280;51805;49.012;12.104;2023-04-20T08:11:23;97659.56;;;22.79;51.94
65227;BME280;51805;49.012;12.104;2023-04-20T08:13:48;97553.25;;;22.17;51.87
65227;BME280;51805;49.012;12.104;2023-04-20T08:16:13;97637.75;;;22.66;51.96
65227;BME280;51805;49.012;12.104;2023-04-20T08:18:38;97650.41;;;22.75;52.08
65227;BME280;51805;49.012;12.104;2023-04-20T08:21:04;97628.38;;;22.58;51.93
65227;BME280;51805;49.012;12.104;2023-04-20T08:23:29;97655.06;;;22.70;51.98
65227;BME280;51805;49.012;12.104;2023-04-20T08:25:54;97583.44;;;22.29;52.15
65227;BME280;51805;49.012;12.104;2023-04-20T08:28:21;97657.41;;;22.76;52.11
65227;BME280;51805;49.012;12.104;2023-04-20T08:30:46;97649.81;;;22.78;52.12
65227;BME280;51805;49.012;12.104;2023-04-20T08:33:11;97571.53;;;22.30;51.97
65227;BME280;51805;49.012;12.104;2023-04-20T08:35:37;97565.31;;;22.29;52.08
65227;BME280;51805;49.012;12.104;2023-04-20T08:38:02;97617.78;;;22.62;52.11
65227;BME280;51805;49.012;12.104;2023-04-20T08:40:29;97644.13;;;22.80;52.18
65227;BME280;51805;49.012;12.104;2023-04-20T08:42:55;97615.34;;;22.60;52.10
65227;BME280;51805;49.012;12.104;2023-04-20T08:45:20;97580.06;;;22.42;52.24
65227;BME280;51805;49.012;12.104;2023-04-20T08:47:46;97622.28;;;22.71;52.10
65227;BME280;51805;49.012;12.104;2023-04-20T08:50:12;97635.16;;;22.79;51.82
65227;BME280;51805;49.012;12.104;2023-04-20T08:52:37;97633.81;;;22.82;52.08
65227;BME280;51805;49.012;12.104;2023-04-20T08:55:03;97629.97;;;22.83;52.15
65227;BME280;51805;49.012;12.104;2023-04-20T08:57:28;97627.31;;;22.78;52.20
65227;BME280;51805;49.012;12.104;2023-04-20T08:59:55;97622.72;;;22.78;51.97
65227;BME280;51805;49.012;12.104;2023-04-20T09:02:21;97615.19;;;22.75;51.91
65227;BME280;51805;49.012;12.104;2023-04-20T09:04:46;97629.69;;;22.84;52.04
65227;BME280;51805;49.012;12.104;2023-04-20T09:07:19;97631.34;;;22.85;51.99
65227;BME280;51805;49.012;12.104;2023-04-20T09:09:55;97637.63;;;22.81;52.05
65227;BME280;51805;49.012;12.104;2023-04-20T09:12:21;97635.13;;;22.84;51.98
65227;BME280;51805;49.012;12.104;2023-04-20T09:14:46;97605.44;;;22.22;48.54
65227;BME280;51805;49.012;12.104;2023-04-20T09:17:13;97635.72;;;22.24;48.50
65227;BME280;51805;49.012;12.104;2023-04-20T09:19:39;97635.28;;;22.12;47.64
65227;BME280;51805;49.012;12.104;2023-04-20T09:22:05;97620.84;;;21.93;46.75
65227;BME280;51805;49.012;12.104;2023-04-20T09:24:35;97633.19;;;22.04;46.61
65227;BME280;51805;49.012;12.104;2023-04-20T09:27:12;97627.63;;;21.91;46.56
65227;BME280;51805;49.012;12.104;2023-04-20T09:29:38;97615.53;;;21.83;45.87
65227;BME280;51805;49.012;12.104;2023-04-20T09:32:03;97616.09;;;21.80;45.37
65227;BME280;51805;49.012;12.104;2023-04-20T09:34:29;97606.94;;;21.71;45.60
65227;BME280;51805;49.012;12.104;2023-04-20T09:36:54;97629.53;;;21.90;45.02
65227;BME280;51805;49.012;12.104;2023-04-20T09:39:21;97628.69;;;22.23;48.06
65227;BME280;51805;49.012;12.104;2023-04-20T09:41:48;97616.69;;;22.34;48.05
65227;BME280;51805;49.012;12.104;2023-04-20T09:44:15;97605.53;;;22.41;48.34
65227;BME280;51805;49.012;12.104;2023-04-20T09:46:41;97613.81;;;22.49;48.39
65227;BME280;51805;49.012;12.104;2023-04-20T09:49:11;97589.50;;;22.44;48.53
65227;BME280;51805;49.012;12.104;2023-04-20T09:51:39;97601.88;;;22.55;48.63
65227;BME280;51805;49.012;12.104;2023-04-20T09:54:05;97598.34;;;22.55;48.95
65227;BME280;51805;49.012;12.104;2023-04-20T09:56:32;97610.97;;;22.64;48.95
65227;BME280;51805;49.012;12.104;2023-04-20T09:58:58;97613.34;;;22.71;49.02
65227;BME280;51805;49.012;12.104;2023-04-20T10:01:24;97626.06;;;22.70;49.08
65227;BME280;51805;49.012;12.104;2023-04-20T10:03:51;97624.47;;;22.69;49.18
65227;BME280;51805;49.012;12.104;2023-04-20T10:06:27;97622.56;;;22.70;49.31
65227;BME280;51805;49.012;12.104;2023-04-20T10:08:53;97617.50;;;22.63;49.42
65227;BME280;51805;49.012;12.104;2023-04-20T10:11:29;97619.03;;;22.69;49.38
65227;BME280;51805;49.012;12.104;2023-04-20T10:13:58;97602.69;;;22.56;49.48
65227;BME280;51805;49.012;12.104;2023-04-20T10:16:24;97598.00;;;22.61;49.57
65227;BME280;51805;49.012;12.104;2023-04-20T10:19:01;97615.50;;;22.69;49.63
65227;BME280;51805;49.012;12.104;2023-04-20T10:21:27;97576.97;;;22.53;49.60
65227;BME280;51805;49.012;12.104;2023-04-20T10:23:53;97592.53;;;22.66;49.50
65227;BME280;51805;49.012;12.104;2023-04-20T10:26:18;97589.53;;;22.68;49.68
65227;BME280;51805;49.012;12.104;2023-04-20T10:28:43;97582.72;;;22.70;49.60
65227;BME280;51805;49.012;12.104;2023-04-20T10:31:10;97583.25;;;22.72;49.62
65227;BME280;51805;49.012;12.104;2023-04-20T10:33:53;97559.00;;;22.62;49.63
65227;BME280;51805;49.012;12.104;2023-04-20T10:36:29;97580.97;;;22.79;49.65
65227;BME280;51805;49.012;12.104;2023-04-20T10:38:55;97576.38;;;22.80;49.49
65227;BME280;51805;49.012;12.104;2023-04-20T10:41:20;97519.09;;;22.44;49.62
65227;BME280;51805;49.012;12.104;2023-04-20T10:43:46;97570.97;;;22.80;49.78
65227;BME280;51805;49.012;12.104;2023-04-20T10:46:22;97549.13;;;22.71;49.74
65227;BME280;51805;49.012;12.104;2023-04-20T10:51:16;97533.75;;;22.67;49.80
65227;BME280;51805;49.012;12.104;2023-04-20T10:53:41;97529.13;;;22.67;49.91
65227;BME280;51805;49.012;12.104;2023-04-20T10:56:07;97538.22;;;22.76;50.00
65227;BME280;51805;49.012;12.104;2023-04-20T10:58:32;97462.09;;;22.36;50.01
65227;BME280;51805;49.012;12.104;2023-04-20T11:01:02;97540.88;;;22.81;49.95
65227;BME280;51805;49.012;12.104;2023-04-20T11:03:28;97540.81;;;22.86;50.06
65227;BME280;51805;49.012;12.104;2023-04-20T11:05:54;97520.34;;;22.75;49.94
65227;BME280;51805;49.012;12.104;2023-04-20T11:08:19;97534.28;;;22.87;50.07
65227;BME280;51805;49.012;12.104;2023-04-20T11:10:45;97527.78;;;22.88;50.30
65227;BME280;51805;49.012;12.104;2023-04-20T11:13:20;97505.13;;;22.79;50.08
65227;BME280;51805;49.012;12.104;2023-04-20T11:15:46;97499.63;;;22.84;50.20
65227;BME280;51805;49.012;12.104;2023-04-20T11:18:14;97449.63;;;22.58;50.39
65227;BME280;51805;49.012;12.104;2023-04-20T11:20:52;97490.78;;;22.79;50.37
65227;BME280;51805;49.012;12.104;2023-04-20T11:23:22;97493.16;;;22.85;50.47
65227;BME280;51805;49.012;12.104;2023-04-20T11:25:54;97513.50;;;23.01;50.50
65227;BME280;51805;49.012;12.104;2023-04-20T11:28:20;97499.81;;;22.93;50.46
65227;BME280;51805;49.012;12.104;2023-04-20T11:30:46;97488.22;;;22.87;50.48
65227;BME280;51805;49.012;12.104;2023-04-20T11:33:12;97516.72;;;23.03;50.49
65227;BME280;51805;49.012;12.104;2023-04-20T11:35:41;97507.56;;;22.99;50.62
65227;BME280;51805;49.012;12.104;2023-04-20T11:38:07;97502.66;;;23.01;50.59
65227;BME280;51805;49.012;12.104;2023-04-20T11:40:33;97393.66;;;22.30;50.48
65227;BME280;51805;49.012;12.104;2023-04-20T11:42:58;97497.00;;;22.98;50.48
65227;BME280;51805;49.012;12.104;2023-04-20T11:45:23;97474.31;;;22.94;50.24
65227;BME280;51805;49.012;12.104;2023-04-20T11:47:51;97491.03;;;23.01;50.44
65227;BME280;51805;49.012;12.104;2023-04-20T11:50:17;97434.50;;;22.76;50.61
65227;BME280;51805;49.012;12.104;2023-04-20T11:52:51;97403.94;;;22.52;50.55
65227;BME280;51805;49.012;12.104;2023-04-20T11:55:17;97474.38;;;23.08;50.41
65227;BME280;51805;49.012;12.104;2023-04-20T11:57:42;97353.56;;;22.32;50.39
65227;BME280;51805;49.012;12.104;2023-04-20T12:00:10;97441.06;;;22.88;50.46
65227;BME280;51805;49.012;12.104;2023-04-20T12:02:35;97444.28;;;22.90;50.64
65227;BME280;51805;49.012;12.104;2023-04-20T12:05:01;97456.50;;;23.07;50.57
65227;BME280;51805;49.012;12.104;2023-04-20T12:07:32;97466.75;;;23.10;50.61
65227;BME280;51805;49.012;12.104;2023-04-20T12:09:57;97451.09;;;23.07;50.52
65227;BME280;51805;49.012;12.104;2023-04-20T12:12:22;97462.94;;;23.11;50.47
65227;BME280;51805;49.012;12.104;2023-04-20T12:14:48;97450.09;;;23.02;50.46
65227;BME280;51805;49.012;12.104;2023-04-20T12:17:13;97413.75;;;22.85;50.48
65227;BME280;51805;49.012;12.104;2023-04-20T12:19:38;97330.31;;;22.31;50.44
65227;BME280;51805;49.012;12.104;2023-04-20T12:22:03;97345.22;;;22.47;50.83
65227;BME280;51805;49.012;12.104;2023-04-20T12:24:29;97353.16;;;22.62;50.65
65227;BME280;51805;49.012;12.104;2023-04-20T12:26:54;97440.66;;;23.14;50.73
65227;BME280;51805;49.012;12.104;2023-04-20T12:29:19;97368.25;;;22.68;50.65
65227;BME280;51805;49.012;12.104;2023-04-20T12:31:45;97406.19;;;23.00;50.74
65227;BME280;51805;49.012;12.104;2023-04-20T12:34:10;97372.38;;;22.79;50.80
65227;BME280;51805;49.012;12.104;2023-04-20T12:36:36;97306.00;;;22.45;50.67
65227;BME280;51805;49.012;12.104;2023-04-20T12:39:01;97331.09;;;22.50;50.63
65227;BME280;51805;49.012;12.104;2023-04-20T12:41:27;97401.78;;;23.04;50.64
65227;BME280;51805;49.012;12.104;2023-04-20T12:43:52;97413.38;;;23.10;50.57
65227;BME280;51805;49.012;12.104;2023-04-20T12:46:17;97427.25;;;23.22;50.72
65227;BME280;51805;49.012;12.104;2023-04-20T12:48:43;97421.84;;;23.22;50.73